sensor_id;sensor_type;location;lat;lon;timestamp;temperature;humidity
51739;DHT22;37815;52.692;6.226;2023-02-20T00:01:27;9.30;99.90
51739;DHT22;37815;52.692;6.226;2023-02-20T00:06:28;9.30;99.90
51739;DHT22;37815;52.692;6.226;2023-02-20T00:11:29;9.30;99.90
51739;DHT22;37815;52.692;6.226;2023-02-20T00:16:29;9.30;99.90
51739;DHT22;37815;52.692;6.226;2023-02-20T00:21:30;9.30;99.90
51739;DHT22;37815;52.692;6.226;2023-02-20T00:26:31;9.30;99.90
51739;DHT22;37815;52.692;6.226;2023-02-20T00:31:31;9.30;99.90
51739;DHT22;37815;52.692;6.226;2023-02-20T00:36:32;9.30;99.90
51739;DHT22;37815;52.692;6.226;2023-02-20T00:41:32;9.30;99.90
51739;DHT22;37815;52.692;6.226;2023-02-20T00:46:33;9.30;99.90
51739;DHT22;37815;52.692;6.226;2023-02-20T00:51:34;9.30;99.90
51739;DHT22;37815;52.692;6.226;2023-02-20T00:56:35;9.30;99.90
51739;DHT22;37815;52.692;6.226;2023-02-20T01:01:36;9.30;99.90
51739;DHT22;37815;52.692;6.226;2023-02-20T01:06:36;9.30;99.90
51739;DHT22;37815;52.692;6.226;2023-02-20T01:11:37;9.30;99.90
51739;DHT22;37815;52.692;6.226;2023-02-20T01:16:43;9.30;99.90
51739;DHT22;37815;52.692;6.226;2023-02-20T01:21:45;9.20;99.90
51739;DHT22;37815;52.692;6.226;2023-02-20T01:26:47;9.20;99.90
51739;DHT22;37815;52.692;6.226;2023-02-20T01:31:49;9.20;99.90
51739;DHT22;37815;52.692;6.226;2023-02-20T01:36:52;9.30;99.90
51739;DHT22;37815;52.692;6.226;2023-02-20T01:42:00;9.20;99.90
51739;DHT22;37815;52.692;6.226;2023-02-20T01:47:06;9.20;99.90
51739;DHT22;37815;52.692;6.226;2023-02-20T01:52:19;9.20;99.90
51739;DHT22;37815;52.692;6.226;2023-02-20T01:57:22;9.20;99.90
51739;DHT22;37815;52.692;6.226;2023-02-20T02:02:24;9.20;99.90
51739;DHT22;37815;52.692;6.226;2023-02-20T02:07:29;9.20;99.90
51739;DHT22;37815;52.692;6.226;2023-02-20T02:12:30;9.20;99.90
51739;DHT22;37815;52.692;6.226;2023-02-20T02:17:49;9.20;99.90
51739;DHT22;37815;52.692;6.226;2023-02-20T02:39:27;9.20;99.90
51739;DHT22;37815;52.692;6.226;2023-02-20T02:45:25;9.10;99.90
51739;DHT22;37815;52.692;6.226;2023-02-20T02:55:23;9.10;99.90
51739;DHT22;37815;52.692;6.226;2023-02-20T03:00:39;9.10;99.90
51739;DHT22;37815;52.692;6.226;2023-02-20T03:06:06;9.10;99.90
51739;DHT22;37815;52.692;6.226;2023-02-20T03:11:19;9.10;99.90
51739;DHT22;37815;52.692;6.226;2023-02-20T03:16:28;9.10;99.90
51739;DHT22;37815;52.692;6.226;2023-02-20T03:21:31;9.10;99.90
51739;DHT22;37815;52.692;6.226;2023-02-20T03:26:34;9.10;99.90
51739;DHT22;37815;52.692;6.226;2023-02-20T03:32:01;9.10;99.90
51739;DHT22;37815;52.692;6.226;2023-02-20T03:37:25;9.10;99.90
51739;DHT22;37815;52.692;6.226;2023-02-20T03:42:48;9.10;99.90
51739;DHT22;37815;52.692;6.226;2023-02-20T03:48:15;9.10;99.90
51739;DHT22;37815;52.692;6.226;2023-02-20T03:53:17;9.10;99.90
51739;DHT22;37815;52.692;6.226;2023-02-20T03:58:20;9.10;99.90
51739;DHT22;37815;52.692;6.226;2023-02-20T04:03:25;9.10;99.90
51739;DHT22;37815;52.692;6.226;2023-02-20T04:08:28;9.10;99.90
51739;DHT22;37815;52.692;6.226;2023-02-20T04:13:36;9.10;99.90
51739;DHT22;37815;52.692;6.226;2023-02-20T04:18:37;9.10;99.90
51739;DHT22;37815;52.692;6.226;2023-02-20T04:23:41;9.10;99.90
51739;DHT22;37815;52.692;6.226;2023-02-20T04:28:44;9.10;99.90
51739;DHT22;37815;52.692;6.226;2023-02-20T04:33:45;9.10;99.90
51739;DHT22;37815;52.692;6.226;2023-02-20T04:38:46;9.10;99.90
51739;DHT22;37815;52.692;6.226;2023-02-20T04:43:47;9.10;99.90
51739;DHT22;37815;52.692;6.226;2023-02-20T04:48:48;9.10;99.90
51739;DHT22;37815;52.692;6.226;2023-02-20T04:53:49;9.10;99.90
51739;DHT22;37815;52.692;6.226;2023-02-20T04:58:49;9.10;99.90
51739;DHT22;37815;52.692;6.226;2023-02-20T05:03:51;9.10;99.90
51739;DHT22;37815;52.692;6.226;2023-02-20T05:08:51;9.10;99.90
51739;DHT22;37815;52.692;6.226;2023-02-20T05:13:52;9.10;99.90
51739;DHT22;37815;52.692;6.226;2023-02-20T05:18:53;9.10;99.90
51739;DHT22;37815;52.692;6.226;2023-02-20T05:23:53;9.10;99.90
51739;DHT22;37815;52.692;6.226;2023-02-20T05:28:54;9.10;99.90
51739;DHT22;37815;52.692;6.226;2023-02-20T05:33:54;9.10;99.90
51739;DHT22;37815;52.692;6.226;2023-02-20T05:38:55;9.10;99.90
51739;DHT22;37815;52.692;6.226;2023-02-20T05:43:56;9.10;99.90
51739;DHT22;37815;52.692;6.226;2023-02-20T05:48:58;9.10;99.90
51739;DHT22;37815;52.692;6.226;2023-02-20T05:53:58;9.10;99.90
51739;DHT22;37815;52.692;6.226;2023-02-20T05:59:00;9.20;99.90
51739;DHT22;37815;52.692;6.226;2023-02-20T06:04:01;9.10;99.90
51739;DHT22;37815;52.692;6.226;2023-02-20T06:09:03;9.10;99.90
51739;DHT22;37815;52.692;6.226;2023-02-20T06:14:05;9.20;99.90
51739;DHT22;37815;52.692;6.226;2023-02-20T06:19:05;9.20;99.90
51739;DHT22;37815;52.692;6.226;2023-02-20T06:24:06;9.20;99.90
51739;DHT22;37815;52.692;6.226;2023-02-20T06:29:07;9.20;99.90
51739;DHT22;37815;52.692;6.226;2023-02-20T06:34:08;9.20;99.90
51739;DHT22;37815;52.692;6.226;2023-02-20T06:39:11;9.20;99.90
51739;DHT22;37815;52.692;6.226;2023-02-20T06:44:11;9.20;99.90
51739;DHT22;37815;52.692;6.226;2023-02-20T06:49:12;9.20;99.90
51739;DHT22;37815;52.692;6.226;2023-02-20T06:54:13;9.20;99.90
51739;DHT22;37815;52.692;6.226;2023-02-20T06:59:14;9.20;99.90
51739;DHT22;37815;52.692;6.226;2023-02-20T07:04:18;9.20;99.90
51739;DHT22;37815;52.692;6.226;2023-02-20T07:09:18;9.20;99.90
51739;DHT22;37815;52.692;6.226;2023-02-20T07:14:20;9.20;99.90
51739;DHT22;37815;52.692;6.226;2023-02-20T07:19:21;9.30;99.90
51739;DHT22;37815;52.692;6.226;2023-02-20T07:24:21;9.30;99.90
51739;DHT22;37815;52.692;6.226;2023-02-20T07:29:22;9.30;99.90
51739;DHT22;37815;52.692;6.226;2023-02-20T07:34:22;9.30;99.90
51739;DHT22;37815;52.692;6.226;2023-02-20T07:39:23;9.30;99.90
51739;DHT22;37815;52.692;6.226;2023-02-20T07:44:25;9.30;99.90
51739;DHT22;37815;52.692;6.226;2023-02-20T07:49:26;9.40;99.90
51739;DHT22;37815;52.692;6.226;2023-02-20T07:54:26;9.30;99.90
51739;DHT22;37815;52.692;6.226;2023-02-20T07:59:27;9.30;99.90
51739;DHT22;37815;52.692;6.226;2023-02-20T08:04:28;9.40;99.90
51739;DHT22;37815;52.692;6.226;2023-02-20T08:09:28;9.40;99.90
51739;DHT22;37815;52.692;6.226;2023-02-20T08:14:29;9.40;99.90
51739;DHT22;37815;52.692;6.226;2023-02-20T08:19:30;9.40;99.90
51739;DHT22;37815;52.692;6.226;2023-02-20T08:24:31;9.40;99.90
51739;DHT22;37815;52.692;6.226;2023-02-20T08:29:32;9.40;99.90
51739;DHT22;37815;52.692;6.226;2023-02-20T08:34:32;9.40;99.90
51739;DHT22;37815;52.692;6.226;2023-02-20T08:39:33;9.50;99.90
51739;DHT22;37815;52.692;6.226;2023-02-20T08:44:33;9.50;99.90
51739;DHT22;37815;52.692;6.226;2023-02-20T08:49:34;9.50;99.90
51739;DHT22;37815;52.692;6.226;2023-02-20T08:54:34;9.50;99.90
51739;DHT22;37815;52.692;6.226;2023-02-20T08:59:35;9.50;99.90
51739;DHT22;37815;52.692;6.226;2023-02-20T09:04:37;9.50;99.90
51739;DHT22;37815;52.692;6.226;2023-02-20T09:09:38;9.50;99.90
51739;DHT22;37815;52.692;6.226;2023-02-20T09:14:39;9.50;99.90
51739;DHT22;37815;52.692;6.226;2023-02-20T09:19:40;9.50;99.90
51739;DHT22;37815;52.692;6.226;2023-02-20T09:24:40;9.60;99.90
51739;DHT22;37815;52.692;6.226;2023-02-20T09:29:41;9.50;99.90
51739;DHT22;37815;52.692;6.226;2023-02-20T09:34:43;9.50;99.90
51739;DHT22;37815;52.692;6.226;2023-02-20T09:39:44;9.60;99.90
51739;DHT22;37815;52.692;6.226;2023-02-20T09:50:00;9.70;99.90
51739;DHT22;37815;52.692;6.226;2023-02-20T09:55:07;9.70;99.90
51739;DHT22;37815;52.692;6.226;2023-02-20T10:00:29;9.70;99.90
51739;DHT22;37815;52.692;6.226;2023-02-20T10:05:31;9.70;99.90
51739;DHT22;37815;52.692;6.226;2023-02-20T10:10:33;9.70;99.90
51739;DHT22;37815;52.692;6.226;2023-02-20T10:15:44;9.70;99.90
51739;DHT22;37815;52.692;6.226;2023-02-20T10:21:16;9.70;99.90
51739;DHT22;37815;52.692;6.226;2023-02-20T10:26:26;9.70;99.90
51739;DHT22;37815;52.692;6.226;2023-02-20T10:31:39;9.70;99.90
51739;DHT22;37815;52.692;6.226;2023-02-20T10:36:48;9.70;99.90
51739;DHT22;37815;52.692;6.226;2023-02-20T10:42:13;9.80;99.90
51739;DHT22;37815;52.692;6.226;2023-02-20T10:52:33;9.80;99.90
51739;DHT22;37815;52.692;6.226;2023-02-20T10:57:40;9.80;99.90
51739;DHT22;37815;52.692;6.226;2023-02-20T11:02:46;9.80;99.90
51739;DHT22;37815;52.692;6.226;2023-02-20T11:07:48;9.80;99.90
51739;DHT22;37815;52.692;6.226;2023-02-20T11:12:51;9.80;99.90
51739;DHT22;37815;52.692;6.226;2023-02-20T11:17:53;9.80;99.90
51739;DHT22;37815;52.692;6.226;2023-02-20T11:22:53;9.90;99.90
51739;DHT22;37815;52.692;6.226;2023-02-20T11:33:14;9.90;99.90
51739;DHT22;37815;52.692;6.226;2023-02-20T11:43:23;9.90;99.90
51739;DHT22;37815;52.692;6.226;2023-02-20T11:48:24;9.90;99.90
51739;DHT22;37815;52.692;6.226;2023-02-20T11:53:28;9.90;99.90
51739;DHT22;37815;52.692;6.226;2023-02-20T11:58:32;9.90;99.90
51739;DHT22;37815;52.692;6.226;2023-02-20T12:03:35;9.90;99.90
51739;DHT22;37815;52.692;6.226;2023-02-20T12:13:47;10.00;99.90
51739;DHT22;37815;52.692;6.226;2023-02-20T12:19:15;10.00;99.90
51739;DHT22;37815;52.692;6.226;2023-02-20T12:29:46;10.00;99.90
51739;DHT22;37815;52.692;6.226;2023-02-20T12:40:24;10.10;99.90
51739;DHT22;37815;52.692;6.226;2023-02-20T12:45:46;10.10;99.90
51739;DHT22;37815;52.692;6.226;2023-02-20T12:51:04;10.10;99.90
51739;DHT22;37815;52.692;6.226;2023-02-20T12:56:19;10.10;99.90
51739;DHT22;37815;52.692;6.226;2023-02-20T13:01:22;10.10;99.90
51739;DHT22;37815;52.692;6.226;2023-02-20T13:06:43;10.10;99.90
51739;DHT22;37815;52.692;6.226;2023-02-20T13:11:48;10.10;99.90
51739;DHT22;37815;52.692;6.226;2023-02-20T13:22:02;10.10;99.90
51739;DHT22;37815;52.692;6.226;2023-02-20T13:27:05;10.10;99.90
51739;DHT22;37815;52.692;6.226;2023-02-20T13:42:36;10.10;99.90
51739;DHT22;37815;52.692;6.226;2023-02-20T13:47:37;10.20;99.90
51739;DHT22;37815;52.692;6.226;2023-02-20T13:52:40;10.20;99.90
51739;DHT22;37815;52.692;6.226;2023-02-20T14:02:54;10.20;99.90
51739;DHT22;37815;52.692;6.226;2023-02-20T14:07:55;10.20;99.90
51739;DHT22;37815;52.692;6.226;2023-02-20T14:18:29;10.30;99.90
51739;DHT22;37815;52.692;6.226;2023-02-20T14:23:30;11.20;99.90
51739;DHT22;37815;52.692;6.226;2023-02-20T14:28:34;10.20;99.90
51739;DHT22;37815;52.692;6.226;2023-02-20T14:33:36;10.30;99.90
51739;DHT22;37815;52.692;6.226;2023-02-20T14:44:02;10.20;99.90
51739;DHT22;37815;52.692;6.226;2023-02-20T14:54:16;10.20;99.90
51739;DHT22;37815;52.692;6.226;2023-02-20T14:59:30;10.20;99.90
51739;DHT22;37815;52.692;6.226;2023-02-20T15:04:32;10.20;99.90
51739;DHT22;37815;52.692;6.226;2023-02-20T15:09:41;10.20;99.90
51739;DHT22;37815;52.692;6.226;2023-02-20T15:14:43;10.20;99.90
51739;DHT22;37815;52.692;6.226;2023-02-20T15:19:44;10.20;99.90
51739;DHT22;37815;52.692;6.226;2023-02-20T15:24:44;10.20;99.90
51739;DHT22;37815;52.692;6.226;2023-02-20T15:29:46;10.20;99.90
51739;DHT22;37815;52.692;6.226;2023-02-20T15:34:53;10.30;99.90
51739;DHT22;37815;52.692;6.226;2023-02-20T15:39:54;10.30;99.90
51739;DHT22;37815;52.692;6.226;2023-02-20T15:44:55;10.30;99.90
51739;DHT22;37815;52.692;6.226;2023-02-20T15:49:56;10.30;99.90
51739;DHT22;37815;52.692;6.226;2023-02-20T15:54:56;10.30;99.90
51739;DHT22;37815;52.692;6.226;2023-02-20T15:59:57;10.30;99.90
51739;DHT22;37815;52.692;6.226;2023-02-20T16:04:58;10.30;99.90
51739;DHT22;37815;52.692;6.226;2023-02-20T16:09:58;10.30;99.90
51739;DHT22;37815;52.692;6.226;2023-02-20T16:14:59;10.30;99.90
51739;DHT22;37815;52.692;6.226;2023-02-20T16:20:00;10.20;99.90
51739;DHT22;37815;52.692;6.226;2023-02-20T16:25:01;10.20;99.90
51739;DHT22;37815;52.692;6.226;2023-02-20T16:30:01;10.20;99.90
51739;DHT22;37815;52.692;6.226;2023-02-20T16:35:02;10.20;99.90
51739;DHT22;37815;52.692;6.226;2023-02-20T16:40:04;10.50;99.90
51739;DHT22;37815;52.692;6.226;2023-02-20T16:45:13;10.30;99.90
51739;DHT22;37815;52.692;6.226;2023-02-20T16:50:17;10.20;99.90
51739;DHT22;37815;52.692;6.226;2023-02-20T17:00:34;9.90;99.90
51739;DHT22;37815;52.692;6.226;2023-02-20T17:05:37;10.20;99.90
51739;DHT22;37815;52.692;6.226;2023-02-20T17:10:38;10.20;99.90
51739;DHT22;37815;52.692;6.226;2023-02-20T17:15:39;10.20;99.90
51739;DHT22;37815;52.692;6.226;2023-02-20T17:20:39;10.20;99.90
51739;DHT22;37815;52.692;6.226;2023-02-20T17:25:40;10.20;99.90
51739;DHT22;37815;52.692;6.226;2023-02-20T17:30:40;10.20;99.90
51739;DHT22;37815;52.692;6.226;2023-02-20T17:35:41;10.20;99.90
51739;DHT22;37815;52.692;6.226;2023-02-20T17:40:41;10.20;99.90
51739;DHT22;37815;52.692;6.226;2023-02-20T17:45:42;10.20;99.90
51739;DHT22;37815;52.692;6.226;2023-02-20T17:50:43;10.20;99.90
51739;DHT22;37815;52.692;6.226;2023-02-20T17:55:43;10.20;99.90
51739;DHT22;37815;52.692;6.226;2023-02-20T18:00:44;10.20;99.90
51739;DHT22;37815;52.692;6.226;2023-02-20T18:05:45;10.20;99.90
51739;DHT22;37815;52.692;6.226;2023-02-20T18:10:46;10.20;99.90
51739;DHT22;37815;52.692;6.226;2023-02-20T18:15:46;10.20;99.90
51739;DHT22;37815;52.692;6.226;2023-02-20T18:20:47;10.10;99.90
51739;DHT22;37815;52.692;6.226;2023-02-20T18:25:48;10.10;99.90
51739;DHT22;37815;52.692;6.226;2023-02-20T18:30:49;10.10;99.90
51739;DHT22;37815;52.692;6.226;2023-02-20T18:35:52;10.10;99.90
51739;DHT22;37815;52.692;6.226;2023-02-20T18:40:53;10.10;99.90
51739;DHT22;37815;52.692;6.226;2023-02-20T18:45:53;10.10;99.90
51739;DHT22;37815;52.692;6.226;2023-02-20T18:50:54;10.10;99.90
51739;DHT22;37815;52.692;6.226;2023-02-20T18:55:55;10.10;99.90
51739;DHT22;37815;52.692;6.226;2023-02-20T19:00:55;10.10;99.90
51739;DHT22;37815;52.692;6.226;2023-02-20T19:05:57;10.10;99.90
51739;DHT22;37815;52.692;6.226;2023-02-20T19:10:57;10.10;99.90
51739;DHT22;37815;52.692;6.226;2023-02-20T19:15:58;10.10;99.90
51739;DHT22;37815;52.692;6.226;2023-02-20T19:20:58;10.10;99.90
51739;DHT22;37815;52.692;6.226;2023-02-20T19:25:59;10.10;99.90
51739;DHT22;37815;52.692;6.226;2023-02-20T19:31:00;10.10;99.90
51739;DHT22;37815;52.692;6.226;2023-02-20T19:36:01;10.10;99.90
51739;DHT22;37815;52.692;6.226;2023-02-20T19:41:01;10.10;99.90
51739;DHT22;37815;52.692;6.226;2023-02-20T19:46:02;10.00;99.90
51739;DHT22;37815;52.692;6.226;2023-02-20T19:51:05;10.10;99.90
51739;DHT22;37815;52.692;6.226;2023-02-20T19:56:07;10.10;99.90
51739;DHT22;37815;52.692;6.226;2023-02-20T20:01:15;10.10;99.90
51739;DHT22;37815;52.692;6.226;2023-02-20T20:06:17;10.10;99.90
51739;DHT22;37815;52.692;6.226;2023-02-20T20:11:17;10.00;99.90
51739;DHT22;37815;52.692;6.226;2023-02-20T20:16:18;10.00;99.90
51739;DHT22;37815;52.692;6.226;2023-02-20T20:21:19;10.10;99.90
51739;DHT22;37815;52.692;6.226;2023-02-20T20:26:28;10.10;99.90
51739;DHT22;37815;52.692;6.226;2023-02-20T20:31:35;10.10;99.90
51739;DHT22;37815;52.692;6.226;2023-02-20T20:36:37;10.10;99.90
51739;DHT22;37815;52.692;6.226;2023-02-20T20:41:37;10.00;99.90
51739;DHT22;37815;52.692;6.226;2023-02-20T20:46:39;10.00;99.90
51739;DHT22;37815;52.692;6.226;2023-02-20T20:51:40;10.10;99.90
51739;DHT22;37815;52.692;6.226;2023-02-20T20:56:46;10.00;99.90
51739;DHT22;37815;52.692;6.226;2023-02-20T21:01:47;10.10;99.90
51739;DHT22;37815;52.692;6.226;2023-02-20T21:06:48;10.10;99.90
51739;DHT22;37815;52.692;6.226;2023-02-20T21:11:48;10.10;99.90
51739;DHT22;37815;52.692;6.226;2023-02-20T21:16:49;10.10;99.90
51739;DHT22;37815;52.692;6.226;2023-02-20T21:21:51;10.00;99.90
51739;DHT22;37815;52.692;6.226;2023-02-20T21:26:51;10.10;99.90
51739;DHT22;37815;52.692;6.226;2023-02-20T21:31:52;10.00;99.90
51739;DHT22;37815;52.692;6.226;2023-02-20T21:36:53;10.00;99.90
51739;DHT22;37815;52.692;6.226;2023-02-20T21:41:53;10.00;99.90
51739;DHT22;37815;52.692;6.226;2023-02-20T21:47:15;10.10;99.90
51739;DHT22;37815;52.692;6.226;2023-02-20T21:52:17;10.10;99.90
51739;DHT22;37815;52.692;6.226;2023-02-20T21:57:19;10.10;99.90
51739;DHT22;37815;52.692;6.226;2023-02-20T22:02:20;10.10;99.90
51739;DHT22;37815;52.692;6.226;2023-02-20T22:07:21;10.10;99.90
51739;DHT22;37815;52.692;6.226;2023-02-20T22:12:40;10.00;99.90
51739;DHT22;37815;52.692;6.226;2023-02-20T22:18:00;10.00;99.90
51739;DHT22;37815;52.692;6.226;2023-02-20T22:23:19;10.10;99.90
51739;DHT22;37815;52.692;6.226;2023-02-20T22:28:38;10.00;99.90
51739;DHT22;37815;52.692;6.226;2023-02-20T22:33:58;10.10;99.90
51739;DHT22;37815;52.692;6.226;2023-02-20T22:39:17;10.00;99.90
51739;DHT22;37815;52.692;6.226;2023-02-20T22:44:36;10.00;99.90
51739;DHT22;37815;52.692;6.226;2023-02-20T22:49:56;10.00;99.90
51739;DHT22;37815;52.692;6.226;2023-02-20T22:55:15;10.00;99.90
51739;DHT22;37815;52.692;6.226;2023-02-20T23:00:35;9.70;99.90
51739;DHT22;37815;52.692;6.226;2023-02-20T23:05:54;10.00;99.90
51739;DHT22;37815;52.692;6.226;2023-02-20T23:11:13;10.00;99.90
51739;DHT22;37815;52.692;6.226;2023-02-20T23:16:32;10.00;99.90
51739;DHT22;37815;52.692;6.226;2023-02-20T23:21:52;10.10;99.90
51739;DHT22;37815;52.692;6.226;2023-02-20T23:27:11;10.00;99.90
51739;DHT22;37815;52.692;6.226;2023-02-20T23:32:30;10.00;99.90
51739;DHT22;37815;52.692;6.226;2023-02-20T23:37:50;10.10;99.90
51739;DHT22;37815;52.692;6.226;2023-02-20T23:43:09;10.10;99.90
51739;DHT22;37815;52.692;6.226;2023-02-20T23:48:28;10.10;99.90
51739;DHT22;37815;52.692;6.226;2023-02-20T23:53:48;10.10;99.90
51739;DHT22;37815;52.692;6.226;2023-02-20T23:59:07;10.10;99.90
